sensor_id;sensor_type;location;lat;lon;timestamp;P1;durP1;ratioP1;P2;durP2;ratioP2
13419;SDS011;6781;58.440;15.470;2023-07-29T00:00:12;1.80;;;1.70;;
13419;SDS011;6781;58.440;15.470;2023-07-29T00:02:39;3.33;;;1.67;;
13419;SDS011;6781;58.440;15.470;2023-07-29T00:05:06;2.05;;;1.67;;
13419;SDS011;6781;58.440;15.470;2023-07-29T00:07:35;3.00;;;1.70;;
13419;SDS011;6781;58.440;15.470;2023-07-29T00:10:02;2.00;;;1.80;;
13419;SDS011;6781;58.440;15.470;2023-07-29T00:12:30;1.98;;;1.60;;
13419;SDS011;6781;58.440;15.470;2023-07-29T00:14:57;1.50;;;1.40;;
13419;SDS011;6781;58.440;15.470;2023-07-29T00:17:24;1.75;;;1.65;;
13419;SDS011;6781;58.440;15.470;2023-07-29T00:19:51;2.28;;;1.60;;
13419;SDS011;6781;58.440;15.470;2023-07-29T00:22:18;2.45;;;1.63;;
13419;SDS011;6781;58.440;15.470;2023-07-29T00:24:46;1.92;;;1.80;;
13419;SDS011;6781;58.440;15.470;2023-07-29T00:27:18;1.70;;;1.60;;
13419;SDS011;6781;58.440;15.470;2023-07-29T00:29:45;2.35;;;1.60;;
13419;SDS011;6781;58.440;15.470;2023-07-29T00:32:12;2.00;;;1.90;;
13419;SDS011;6781;58.440;15.470;2023-07-29T00:34:39;3.35;;;2.05;;
13419;SDS011;6781;58.440;15.470;2023-07-29T00:37:06;2.38;;;2.17;;
13419;SDS011;6781;58.440;15.470;2023-07-29T00:39:33;1.80;;;1.70;;
13419;SDS011;6781;58.440;15.470;2023-07-29T00:42:01;1.92;;;1.83;;
13419;SDS011;6781;58.440;15.470;2023-07-29T00:44:28;4.47;;;1.98;;
13419;SDS011;6781;58.440;15.470;2023-07-29T00:46:56;2.00;;;1.80;;
13419;SDS011;6781;58.440;15.470;2023-07-29T00:49:25;2.72;;;2.40;;
13419;SDS011;6781;58.440;15.470;2023-07-29T00:51:52;2.53;;;2.08;;
13419;SDS011;6781;58.440;15.470;2023-07-29T00:54:19;1.88;;;1.77;;
13419;SDS011;6781;58.440;15.470;2023-07-29T00:56:46;2.67;;;2.20;;
13419;SDS011;6781;58.440;15.470;2023-07-29T00:59:14;2.67;;;2.10;;
13419;SDS011;6781;58.440;15.470;2023-07-29T01:01:41;2.55;;;2.30;;
13419;SDS011;6781;58.440;15.470;2023-07-29T01:04:08;2.10;;;2.00;;
13419;SDS011;6781;58.440;15.470;2023-07-29T01:06:38;2.42;;;2.22;;
13419;SDS011;6781;58.440;15.470;2023-07-29T01:09:14;3.63;;;2.15;;
13419;SDS011;6781;58.440;15.470;2023-07-29T01:11:53;2.28;;;2.10;;
13419;SDS011;6781;58.440;15.470;2023-07-29T01:14:31;2.53;;;2.28;;
13419;SDS011;6781;58.440;15.470;2023-07-29T01:17:07;2.10;;;2.00;;
13419;SDS011;6781;58.440;15.470;2023-07-29T01:19:43;3.50;;;1.80;;
13419;SDS011;6781;58.440;15.470;2023-07-29T01:22:22;2.47;;;2.00;;
13419;SDS011;6781;58.440;15.470;2023-07-29T01:24:52;3.72;;;2.40;;
13419;SDS011;6781;58.440;15.470;2023-07-29T01:27:19;2.40;;;2.20;;
13419;SDS011;6781;58.440;15.470;2023-07-29T01:29:46;3.40;;;2.30;;
13419;SDS011;6781;58.440;15.470;2023-07-29T01:32:14;1.92;;;1.83;;
13419;SDS011;6781;58.440;15.470;2023-07-29T01:34:46;2.47;;;2.17;;
13419;SDS011;6781;58.440;15.470;2023-07-29T01:37:22;2.97;;;1.90;;
13419;SDS011;6781;58.440;15.470;2023-07-29T01:39:54;2.70;;;2.50;;
13419;SDS011;6781;58.440;15.470;2023-07-29T01:42:25;2.75;;;2.10;;
13419;SDS011;6781;58.440;15.470;2023-07-29T01:44:53;2.17;;;2.00;;
13419;SDS011;6781;58.440;15.470;2023-07-29T01:47:20;3.17;;;2.15;;
13419;SDS011;6781;58.440;15.470;2023-07-29T01:49:48;2.40;;;2.20;;
13419;SDS011;6781;58.440;15.470;2023-07-29T01:52:15;2.60;;;2.40;;
13419;SDS011;6781;58.440;15.470;2023-07-29T01:54:41;2.20;;;2.00;;
13419;SDS011;6781;58.440;15.470;2023-07-29T01:57:10;2.28;;;2.08;;
13419;SDS011;6781;58.440;15.470;2023-07-29T01:59:37;2.17;;;2.08;;
13419;SDS011;6781;58.440;15.470;2023-07-29T02:02:04;3.53;;;2.03;;
13419;SDS011;6781;58.440;15.470;2023-07-29T02:07:09;4.15;;;2.28;;
13419;SDS011;6781;58.440;15.470;2023-07-29T02:09:36;2.20;;;2.00;;
13419;SDS011;6781;58.440;15.470;2023-07-29T02:12:03;2.30;;;2.20;;
13419;SDS011;6781;58.440;15.470;2023-07-29T02:14:33;3.35;;;2.20;;
13419;SDS011;6781;58.440;15.470;2023-07-29T02:17:00;2.67;;;2.08;;
13419;SDS011;6781;58.440;15.470;2023-07-29T02:19:27;3.97;;;2.17;;
13419;SDS011;6781;58.440;15.470;2023-07-29T02:21:54;4.50;;;2.53;;
13419;SDS011;6781;58.440;15.470;2023-07-29T02:24:21;2.30;;;2.08;;
13419;SDS011;6781;58.440;15.470;2023-07-29T02:26:48;2.15;;;1.83;;
13419;SDS011;6781;58.440;15.470;2023-07-29T02:29:15;2.58;;;2.38;;
13419;SDS011;6781;58.440;15.470;2023-07-29T02:31:44;3.42;;;2.40;;
13419;SDS011;6781;58.440;15.470;2023-07-29T02:34:11;5.63;;;2.60;;
13419;SDS011;6781;58.440;15.470;2023-07-29T02:36:37;2.50;;;2.40;;
13419;SDS011;6781;58.440;15.470;2023-07-29T02:39:04;5.55;;;2.83;;
13419;SDS011;6781;58.440;15.470;2023-07-29T02:41:31;4.22;;;2.70;;
13419;SDS011;6781;58.440;15.470;2023-07-29T02:43:58;7.68;;;2.50;;
13419;SDS011;6781;58.440;15.470;2023-07-29T02:46:25;3.08;;;2.22;;
13419;SDS011;6781;58.440;15.470;2023-07-29T02:48:54;4.57;;;2.72;;
13419;SDS011;6781;58.440;15.470;2023-07-29T02:51:21;2.63;;;2.42;;
13419;SDS011;6781;58.440;15.470;2023-07-29T02:53:48;3.75;;;2.60;;
13419;SDS011;6781;58.440;15.470;2023-07-29T02:56:15;4.32;;;2.20;;
13419;SDS011;6781;58.440;15.470;2023-07-29T02:58:42;2.95;;;2.28;;
13419;SDS011;6781;58.440;15.470;2023-07-29T03:01:10;2.33;;;2.20;;
13419;SDS011;6781;58.440;15.470;2023-07-29T03:03:37;2.60;;;2.42;;
13419;SDS011;6781;58.440;15.470;2023-07-29T03:06:06;2.28;;;1.92;;
13419;SDS011;6781;58.440;15.470;2023-07-29T03:08:34;3.75;;;2.42;;
13419;SDS011;6781;58.440;15.470;2023-07-29T03:11:05;2.53;;;2.33;;
13419;SDS011;6781;58.440;15.470;2023-07-29T03:13:33;4.82;;;2.70;;
13419;SDS011;6781;58.440;15.470;2023-07-29T03:16:04;5.07;;;2.42;;
13419;SDS011;6781;58.440;15.470;2023-07-29T03:18:32;2.95;;;2.20;;
13419;SDS011;6781;58.440;15.470;2023-07-29T03:20:59;4.85;;;2.88;;
13419;SDS011;6781;58.440;15.470;2023-07-29T03:23:27;4.60;;;2.38;;
13419;SDS011;6781;58.440;15.470;2023-07-29T03:26:00;4.28;;;2.55;;
13419;SDS011;6781;58.440;15.470;2023-07-29T03:28:35;4.00;;;3.67;;
13419;SDS011;6781;58.440;15.470;2023-07-29T03:31:05;3.95;;;2.90;;
13419;SDS011;6781;58.440;15.470;2023-07-29T03:33:32;2.78;;;2.58;;
13419;SDS011;6781;58.440;15.470;2023-07-29T03:35:59;3.35;;;2.47;;
13419;SDS011;6781;58.440;15.470;2023-07-29T03:38:28;3.38;;;2.40;;
13419;SDS011;6781;58.440;15.470;2023-07-29T03:40:55;2.70;;;2.22;;
13419;SDS011;6781;58.440;15.470;2023-07-29T03:43:22;2.83;;;2.53;;
13419;SDS011;6781;58.440;15.470;2023-07-29T03:45:50;4.28;;;2.88;;
13419;SDS011;6781;58.440;15.470;2023-07-29T03:48:17;3.50;;;2.47;;
13419;SDS011;6781;58.440;15.470;2023-07-29T03:50:44;5.53;;;2.90;;
13419;SDS011;6781;58.440;15.470;2023-07-29T03:53:10;3.47;;;2.70;;
13419;SDS011;6781;58.440;15.470;2023-07-29T03:55:39;4.45;;;2.80;;
13419;SDS011;6781;58.440;15.470;2023-07-29T03:58:06;4.07;;;2.70;;
13419;SDS011;6781;58.440;15.470;2023-07-29T04:00:33;3.17;;;2.72;;
13419;SDS011;6781;58.440;15.470;2023-07-29T04:03:00;3.58;;;2.88;;
13419;SDS011;6781;58.440;15.470;2023-07-29T04:05:27;5.45;;;3.00;;
13419;SDS011;6781;58.440;15.470;2023-07-29T04:07:54;3.17;;;2.88;;
13419;SDS011;6781;58.440;15.470;2023-07-29T04:10:21;2.45;;;2.22;;
13419;SDS011;6781;58.440;15.470;2023-07-29T04:12:49;3.10;;;2.85;;
13419;SDS011;6781;58.440;15.470;2023-07-29T04:15:16;3.05;;;2.80;;
13419;SDS011;6781;58.440;15.470;2023-07-29T04:17:43;3.05;;;2.78;;
13419;SDS011;6781;58.440;15.470;2023-07-29T04:20:11;3.03;;;2.60;;
13419;SDS011;6781;58.440;15.470;2023-07-29T04:22:38;3.75;;;3.15;;
13419;SDS011;6781;58.440;15.470;2023-07-29T04:25:05;5.78;;;2.70;;
13419;SDS011;6781;58.440;15.470;2023-07-29T04:27:33;3.63;;;2.80;;
13419;SDS011;6781;58.440;15.470;2023-07-29T04:30:01;5.53;;;3.53;;
13419;SDS011;6781;58.440;15.470;2023-07-29T04:32:28;5.32;;;3.17;;
13419;SDS011;6781;58.440;15.470;2023-07-29T04:34:55;4.82;;;4.03;;
13419;SDS011;6781;58.440;15.470;2023-07-29T04:37:22;6.43;;;3.65;;
13419;SDS011;6781;58.440;15.470;2023-07-29T04:39:50;6.00;;;4.22;;
13419;SDS011;6781;58.440;15.470;2023-07-29T04:42:17;8.30;;;4.03;;
13419;SDS011;6781;58.440;15.470;2023-07-29T04:44:44;6.43;;;4.20;;
13419;SDS011;6781;58.440;15.470;2023-07-29T04:47:12;5.07;;;4.20;;
13419;SDS011;6781;58.440;15.470;2023-07-29T04:49:39;7.35;;;3.50;;
13419;SDS011;6781;58.440;15.470;2023-07-29T04:52:07;3.67;;;3.38;;
13419;SDS011;6781;58.440;15.470;2023-07-29T04:54:34;5.82;;;4.00;;
13419;SDS011;6781;58.440;15.470;2023-07-29T04:57:01;4.65;;;3.80;;
13419;SDS011;6781;58.440;15.470;2023-07-29T04:59:27;7.72;;;3.72;;
13419;SDS011;6781;58.440;15.470;2023-07-29T05:01:54;5.07;;;3.88;;
13419;SDS011;6781;58.440;15.470;2023-07-29T05:04:23;5.95;;;4.50;;
13419;SDS011;6781;58.440;15.470;2023-07-29T05:06:50;4.72;;;4.07;;
13419;SDS011;6781;58.440;15.470;2023-07-29T05:09:18;5.53;;;4.00;;
13419;SDS011;6781;58.440;15.470;2023-07-29T05:11:46;4.95;;;3.88;;
13419;SDS011;6781;58.440;15.470;2023-07-29T05:14:14;5.18;;;4.60;;
13419;SDS011;6781;58.440;15.470;2023-07-29T05:16:42;8.30;;;4.45;;
13419;SDS011;6781;58.440;15.470;2023-07-29T05:19:13;5.40;;;4.90;;
13419;SDS011;6781;58.440;15.470;2023-07-29T05:21:41;5.85;;;4.40;;
13419;SDS011;6781;58.440;15.470;2023-07-29T05:24:08;4.45;;;3.55;;
13419;SDS011;6781;58.440;15.470;2023-07-29T05:26:35;7.13;;;4.72;;
13419;SDS011;6781;58.440;15.470;2023-07-29T05:29:02;4.95;;;4.45;;
13419;SDS011;6781;58.440;15.470;2023-07-29T05:31:29;7.05;;;4.47;;
13419;SDS011;6781;58.440;15.470;2023-07-29T05:33:56;6.00;;;4.20;;
13419;SDS011;6781;58.440;15.470;2023-07-29T05:36:23;5.30;;;4.30;;
13419;SDS011;6781;58.440;15.470;2023-07-29T05:38:52;4.20;;;3.80;;
13419;SDS011;6781;58.440;15.470;2023-07-29T05:41:19;5.00;;;4.07;;
13419;SDS011;6781;58.440;15.470;2023-07-29T05:43:46;5.47;;;3.88;;
13419;SDS011;6781;58.440;15.470;2023-07-29T05:46:13;5.40;;;3.40;;
13419;SDS011;6781;58.440;15.470;2023-07-29T05:48:41;4.43;;;3.80;;
13419;SDS011;6781;58.440;15.470;2023-07-29T05:51:08;5.82;;;4.63;;
13419;SDS011;6781;58.440;15.470;2023-07-29T05:53:34;6.63;;;4.10;;
13419;SDS011;6781;58.440;15.470;2023-07-29T05:56:03;4.53;;;3.70;;
13419;SDS011;6781;58.440;15.470;2023-07-29T05:58:30;4.45;;;3.40;;
13419;SDS011;6781;58.440;15.470;2023-07-29T06:00:57;4.38;;;3.80;;
13419;SDS011;6781;58.440;15.470;2023-07-29T06:03:24;3.53;;;3.17;;
13419;SDS011;6781;58.440;15.470;2023-07-29T06:05:51;4.28;;;3.33;;
13419;SDS011;6781;58.440;15.470;2023-07-29T06:08:20;4.75;;;3.03;;
13419;SDS011;6781;58.440;15.470;2023-07-29T06:10:47;3.78;;;3.40;;
13419;SDS011;6781;58.440;15.470;2023-07-29T06:13:15;3.53;;;3.20;;
13419;SDS011;6781;58.440;15.470;2023-07-29T06:15:42;3.75;;;2.65;;
13419;SDS011;6781;58.440;15.470;2023-07-29T06:18:08;3.58;;;3.28;;
13419;SDS011;6781;58.440;15.470;2023-07-29T06:20:35;4.63;;;2.85;;
13419;SDS011;6781;58.440;15.470;2023-07-29T06:23:02;4.40;;;3.10;;
13419;SDS011;6781;58.440;15.470;2023-07-29T06:25:29;3.67;;;3.17;;
13419;SDS011;6781;58.440;15.470;2023-07-29T06:27:56;3.92;;;2.90;;
13419;SDS011;6781;58.440;15.470;2023-07-29T06:30:25;4.43;;;3.00;;
13419;SDS011;6781;58.440;15.470;2023-07-29T06:32:51;3.40;;;2.80;;
13419;SDS011;6781;58.440;15.470;2023-07-29T06:35:19;3.72;;;3.30;;
13419;SDS011;6781;58.440;15.470;2023-07-29T06:37:45;3.92;;;2.92;;
13419;SDS011;6781;58.440;15.470;2023-07-29T06:40:12;5.78;;;3.17;;
13419;SDS011;6781;58.440;15.470;2023-07-29T06:42:41;4.10;;;3.10;;
13419;SDS011;6781;58.440;15.470;2023-07-29T06:45:08;3.45;;;2.90;;
13419;SDS011;6781;58.440;15.470;2023-07-29T06:47:38;4.63;;;2.50;;
13419;SDS011;6781;58.440;15.470;2023-07-29T06:50:05;3.15;;;2.60;;
13419;SDS011;6781;58.440;15.470;2023-07-29T06:52:32;4.20;;;2.75;;
13419;SDS011;6781;58.440;15.470;2023-07-29T06:54:59;3.85;;;2.70;;
13419;SDS011;6781;58.440;15.470;2023-07-29T06:57:26;3.53;;;2.63;;
13419;SDS011;6781;58.440;15.470;2023-07-29T06:59:53;3.42;;;2.65;;
13419;SDS011;6781;58.440;15.470;2023-07-29T07:02:20;3.65;;;2.90;;
13419;SDS011;6781;58.440;15.470;2023-07-29T07:04:48;3.08;;;2.25;;
13419;SDS011;6781;58.440;15.470;2023-07-29T07:07:15;2.47;;;2.28;;
13419;SDS011;6781;58.440;15.470;2023-07-29T07:09:42;4.32;;;2.58;;
13419;SDS011;6781;58.440;15.470;2023-07-29T07:12:09;3.75;;;3.17;;
13419;SDS011;6781;58.440;15.470;2023-07-29T07:14:36;2.78;;;2.50;;
13419;SDS011;6781;58.440;15.470;2023-07-29T07:17:04;3.17;;;2.35;;
13419;SDS011;6781;58.440;15.470;2023-07-29T07:19:31;3.95;;;2.90;;
13419;SDS011;6781;58.440;15.470;2023-07-29T07:22:00;4.10;;;2.55;;
13419;SDS011;6781;58.440;15.470;2023-07-29T07:24:27;2.67;;;2.47;;
13419;SDS011;6781;58.440;15.470;2023-07-29T07:26:54;2.15;;;1.95;;
13419;SDS011;6781;58.440;15.470;2023-07-29T07:29:21;3.75;;;2.60;;
13419;SDS011;6781;58.440;15.470;2023-07-29T07:31:49;3.42;;;2.28;;
13419;SDS011;6781;58.440;15.470;2023-07-29T07:34:17;6.53;;;2.58;;
13419;SDS011;6781;58.440;15.470;2023-07-29T07:36:44;4.07;;;2.30;;
13419;SDS011;6781;58.440;15.470;2023-07-29T07:39:13;2.40;;;2.20;;
13419;SDS011;6781;58.440;15.470;2023-07-29T07:41:40;3.17;;;2.70;;
13419;SDS011;6781;58.440;15.470;2023-07-29T07:44:08;3.28;;;2.28;;
13419;SDS011;6781;58.440;15.470;2023-07-29T07:46:36;2.42;;;2.20;;
13419;SDS011;6781;58.440;15.470;2023-07-29T07:49:03;2.88;;;1.90;;
13419;SDS011;6781;58.440;15.470;2023-07-29T07:51:30;2.10;;;2.00;;
13419;SDS011;6781;58.440;15.470;2023-07-29T07:53:57;3.75;;;2.40;;
13419;SDS011;6781;58.440;15.470;2023-07-29T07:56:25;2.72;;;2.35;;
13419;SDS011;6781;58.440;15.470;2023-07-29T07:58:52;2.30;;;2.05;;
13419;SDS011;6781;58.440;15.470;2023-07-29T08:01:19;1.95;;;1.80;;
13419;SDS011;6781;58.440;15.470;2023-07-29T08:03:46;2.15;;;1.95;;
13419;SDS011;6781;58.440;15.470;2023-07-29T08:06:13;3.17;;;2.30;;
13419;SDS011;6781;58.440;15.470;2023-07-29T08:08:40;2.85;;;2.35;;
13419;SDS011;6781;58.440;15.470;2023-07-29T08:11:07;2.15;;;1.95;;
13419;SDS011;6781;58.440;15.470;2023-07-29T08:13:36;2.10;;;2.00;;
13419;SDS011;6781;58.440;15.470;2023-07-29T08:16:03;4.78;;;2.00;;
13419;SDS011;6781;58.440;15.470;2023-07-29T08:18:30;2.28;;;2.08;;
13419;SDS011;6781;58.440;15.470;2023-07-29T08:20:57;1.90;;;1.67;;
13419;SDS011;6781;58.440;15.470;2023-07-29T08:23:28;2.83;;;2.60;;
13419;SDS011;6781;58.440;15.470;2023-07-29T08:25:56;3.17;;;1.75;;
13419;SDS011;6781;58.440;15.470;2023-07-29T08:28:26;1.70;;;1.60;;
13419;SDS011;6781;58.440;15.470;2023-07-29T08:30:55;1.90;;;1.80;;
13419;SDS011;6781;58.440;15.470;2023-07-29T08:33:22;4.88;;;1.90;;
13419;SDS011;6781;58.440;15.470;2023-07-29T08:35:49;2.65;;;1.80;;
13419;SDS011;6781;58.440;15.470;2023-07-29T08:38:16;2.40;;;1.70;;
13419;SDS011;6781;58.440;15.470;2023-07-29T08:40:45;1.80;;;1.70;;
13419;SDS011;6781;58.440;15.470;2023-07-29T08:43:17;1.65;;;1.55;;
13419;SDS011;6781;58.440;15.470;2023-07-29T08:45:46;1.67;;;1.58;;
13419;SDS011;6781;58.440;15.470;2023-07-29T08:48:15;1.92;;;1.83;;
13419;SDS011;6781;58.440;15.470;2023-07-29T08:50:50;1.55;;;1.45;;
13419;SDS011;6781;58.440;15.470;2023-07-29T08:53:18;1.70;;;1.60;;
13419;SDS011;6781;58.440;15.470;2023-07-29T08:55:47;2.25;;;1.80;;
13419;SDS011;6781;58.440;15.470;2023-07-29T08:58:15;1.70;;;1.60;;
13419;SDS011;6781;58.440;15.470;2023-07-29T09:00:42;1.98;;;1.67;;
13419;SDS011;6781;58.440;15.470;2023-07-29T09:03:10;2.65;;;1.70;;
13419;SDS011;6781;58.440;15.470;2023-07-29T09:05:38;1.63;;;1.52;;
13419;SDS011;6781;58.440;15.470;2023-07-29T09:08:05;1.77;;;1.67;;
13419;SDS011;6781;58.440;15.470;2023-07-29T09:10:35;2.15;;;1.50;;
13419;SDS011;6781;58.440;15.470;2023-07-29T09:13:02;2.35;;;1.90;;
13419;SDS011;6781;58.440;15.470;2023-07-29T09:15:30;1.60;;;1.50;;
13419;SDS011;6781;58.440;15.470;2023-07-29T09:17:58;1.83;;;1.73;;
13419;SDS011;6781;58.440;15.470;2023-07-29T09:20:26;1.70;;;1.60;;
13419;SDS011;6781;58.440;15.470;2023-07-29T09:22:55;2.28;;;1.50;;
13419;SDS011;6781;58.440;15.470;2023-07-29T09:25:25;1.95;;;1.75;;
13419;SDS011;6781;58.440;15.470;2023-07-29T09:27:56;2.10;;;1.88;;
13419;SDS011;6781;58.440;15.470;2023-07-29T09:30:26;2.65;;;1.95;;
13419;SDS011;6781;58.440;15.470;2023-07-29T09:32:54;1.80;;;1.70;;
13419;SDS011;6781;58.440;15.470;2023-07-29T09:35:22;2.20;;;1.80;;
13419;SDS011;6781;58.440;15.470;2023-07-29T09:37:50;1.85;;;1.75;;
13419;SDS011;6781;58.440;15.470;2023-07-29T09:40:19;1.90;;;1.70;;
13419;SDS011;6781;58.440;15.470;2023-07-29T09:42:49;2.10;;;1.92;;
13419;SDS011;6781;58.440;15.470;2023-07-29T09:45:20;1.90;;;1.80;;
13419;SDS011;6781;58.440;15.470;2023-07-29T09:47:48;1.80;;;1.70;;
13419;SDS011;6781;58.440;15.470;2023-07-29T09:50:16;1.58;;;1.48;;
13419;SDS011;6781;58.440;15.470;2023-07-29T09:52:43;1.60;;;1.50;;
13419;SDS011;6781;58.440;15.470;2023-07-29T09:55:11;1.50;;;1.35;;
13419;SDS011;6781;58.440;15.470;2023-07-29T09:57:40;1.88;;;1.70;;
13419;SDS011;6781;58.440;15.470;2023-07-29T10:00:09;2.08;;;1.52;;
13419;SDS011;6781;58.440;15.470;2023-07-29T10:02:38;1.60;;;1.50;;
13419;SDS011;6781;58.440;15.470;2023-07-29T10:05:06;1.67;;;1.58;;
13419;SDS011;6781;58.440;15.470;2023-07-29T10:07:37;1.65;;;1.55;;
13419;SDS011;6781;58.440;15.470;2023-07-29T10:10:05;2.45;;;1.80;;
13419;SDS011;6781;58.440;15.470;2023-07-29T10:12:34;1.70;;;1.60;;
13419;SDS011;6781;58.440;15.470;2023-07-29T10:15:03;2.20;;;2.00;;
13419;SDS011;6781;58.440;15.470;2023-07-29T10:17:33;2.10;;;1.77;;
13419;SDS011;6781;58.440;15.470;2023-07-29T10:20:20;2.33;;;1.77;;
13419;SDS011;6781;58.440;15.470;2023-07-29T10:22:48;2.13;;;2.00;;
13419;SDS011;6781;58.440;15.470;2023-07-29T10:25:24;1.90;;;1.80;;
13419;SDS011;6781;58.440;15.470;2023-07-29T10:27:53;2.55;;;2.10;;
13419;SDS011;6781;58.440;15.470;2023-07-29T10:30:27;2.08;;;1.88;;
13419;SDS011;6781;58.440;15.470;2023-07-29T10:32:55;3.90;;;1.98;;
13419;SDS011;6781;58.440;15.470;2023-07-29T10:35:27;3.13;;;1.98;;
13419;SDS011;6781;58.440;15.470;2023-07-29T10:37:55;3.80;;;2.50;;
13419;SDS011;6781;58.440;15.470;2023-07-29T10:41:07;2.63;;;2.05;;
13419;SDS011;6781;58.440;15.470;2023-07-29T10:43:35;2.03;;;1.92;;
13419;SDS011;6781;58.440;15.470;2023-07-29T10:46:16;2.80;;;2.10;;
13419;SDS011;6781;58.440;15.470;2023-07-29T10:48:44;2.80;;;2.22;;
13419;SDS011;6781;58.440;15.470;2023-07-29T10:51:22;1.80;;;1.70;;
13419;SDS011;6781;58.440;15.470;2023-07-29T10:53:55;3.63;;;2.05;;
13419;SDS011;6781;58.440;15.470;2023-07-29T10:56:28;2.00;;;1.90;;
13419;SDS011;6781;58.440;15.470;2023-07-29T10:58:57;2.70;;;2.20;;
13419;SDS011;6781;58.440;15.470;2023-07-29T11:01:28;3.00;;;2.22;;
13419;SDS011;6781;58.440;15.470;2023-07-29T11:09:52;2.15;;;1.95;;
13419;SDS011;6781;58.440;15.470;2023-07-29T11:12:35;1.90;;;1.80;;
13419;SDS011;6781;58.440;15.470;2023-07-29T11:15:14;2.05;;;1.95;;
13419;SDS011;6781;58.440;15.470;2023-07-29T11:17:43;2.78;;;2.00;;
13419;SDS011;6781;58.440;15.470;2023-07-29T11:20:12;2.40;;;2.20;;
13419;SDS011;6781;58.440;15.470;2023-07-29T11:22:39;2.65;;;2.25;;
13419;SDS011;6781;58.440;15.470;2023-07-29T11:25:08;2.55;;;2.22;;
13419;SDS011;6781;58.440;15.470;2023-07-29T11:27:38;1.98;;;1.88;;
13419;SDS011;6781;58.440;15.470;2023-07-29T11:30:06;2.58;;;2.38;;
13419;SDS011;6781;58.440;15.470;2023-07-29T11:32:37;2.65;;;1.95;;
13419;SDS011;6781;58.440;15.470;2023-07-29T11:35:05;3.97;;;2.28;;
13419;SDS011;6781;58.440;15.470;2023-07-29T11:37:33;2.47;;;2.13;;
13419;SDS011;6781;58.440;15.470;2023-07-29T11:40:01;5.45;;;2.15;;
13419;SDS011;6781;58.440;15.470;2023-07-29T11:42:28;2.90;;;2.25;;
13419;SDS011;6781;58.440;15.470;2023-07-29T11:44:59;2.28;;;2.08;;
13419;SDS011;6781;58.440;15.470;2023-07-29T11:47:27;2.38;;;2.17;;
13419;SDS011;6781;58.440;15.470;2023-07-29T11:49:57;2.30;;;2.10;;
13419;SDS011;6781;58.440;15.470;2023-07-29T11:52:25;2.40;;;2.20;;
13419;SDS011;6781;58.440;15.470;2023-07-29T11:55:01;2.67;;;2.47;;
13419;SDS011;6781;58.440;15.470;2023-07-29T11:57:28;3.42;;;2.30;;
13419;SDS011;6781;58.440;15.470;2023-07-29T11:59:56;2.65;;;2.17;;
13419;SDS011;6781;58.440;15.470;2023-07-29T12:02:25;2.33;;;2.13;;
13419;SDS011;6781;58.440;15.470;2023-07-29T12:04:52;2.40;;;2.20;;
13419;SDS011;6781;58.440;15.470;2023-07-29T12:07:26;2.75;;;2.30;;
13419;SDS011;6781;58.440;15.470;2023-07-29T12:09:56;2.33;;;2.05;;
13419;SDS011;6781;58.440;15.470;2023-07-29T12:12:24;2.20;;;2.00;;
13419;SDS011;6781;58.440;15.470;2023-07-29T12:14:53;3.08;;;2.00;;
13419;SDS011;6781;58.440;15.470;2023-07-29T12:17:21;2.47;;;2.28;;
13419;SDS011;6781;58.440;15.470;2023-07-29T12:19:49;2.63;;;2.00;;
13419;SDS011;6781;58.440;15.470;2023-07-29T12:22:20;2.58;;;2.30;;
13419;SDS011;6781;58.440;15.470;2023-07-29T12:24:47;2.63;;;2.25;;
13419;SDS011;6781;58.440;15.470;2023-07-29T12:27:19;2.25;;;2.00;;
13419;SDS011;6781;58.440;15.470;2023-07-29T12:29:48;2.30;;;1.90;;
13419;SDS011;6781;58.440;15.470;2023-07-29T12:32:19;2.20;;;1.90;;
13419;SDS011;6781;58.440;15.470;2023-07-29T12:34:46;2.97;;;1.88;;
13419;SDS011;6781;58.440;15.470;2023-07-29T12:37:15;2.00;;;1.80;;
13419;SDS011;6781;58.440;15.470;2023-07-29T12:39:42;2.33;;;2.13;;
13419;SDS011;6781;58.440;15.470;2023-07-29T12:42:09;2.42;;;2.22;;
13419;SDS011;6781;58.440;15.470;2023-07-29T12:44:37;2.80;;;2.17;;
13419;SDS011;6781;58.440;15.470;2023-07-29T12:47:05;2.25;;;2.05;;
13419;SDS011;6781;58.440;15.470;2023-07-29T12:49:33;2.63;;;2.42;;
13419;SDS011;6781;58.440;15.470;2023-07-29T12:52:02;2.17;;;2.08;;
13419;SDS011;6781;58.440;15.470;2023-07-29T12:54:29;2.22;;;2.03;;
13419;SDS011;6781;58.440;15.470;2023-07-29T12:56:59;4.97;;;2.15;;
13419;SDS011;6781;58.440;15.470;2023-07-29T12:59:28;2.45;;;2.25;;
13419;SDS011;6781;58.440;15.470;2023-07-29T13:01:55;2.53;;;2.17;;
13419;SDS011;6781;58.440;15.470;2023-07-29T13:04:22;2.65;;;2.08;;
13419;SDS011;6781;58.440;15.470;2023-07-29T13:06:49;2.13;;;1.98;;
13419;SDS011;6781;58.440;15.470;2023-07-29T13:09:17;2.50;;;2.22;;
13419;SDS011;6781;58.440;15.470;2023-07-29T13:11:44;3.00;;;2.17;;
13419;SDS011;6781;58.440;15.470;2023-07-29T13:14:12;2.88;;;2.22;;
13419;SDS011;6781;58.440;15.470;2023-07-29T13:16:39;2.30;;;2.10;;
13419;SDS011;6781;58.440;15.470;2023-07-29T13:19:06;2.22;;;2.03;;
13419;SDS011;6781;58.440;15.470;2023-07-29T13:21:33;2.20;;;2.00;;
13419;SDS011;6781;58.440;15.470;2023-07-29T13:24:00;2.40;;;2.20;;
13419;SDS011;6781;58.440;15.470;2023-07-29T13:26:28;2.40;;;2.20;;
13419;SDS011;6781;58.440;15.470;2023-07-29T13:28:55;2.40;;;2.20;;
13419;SDS011;6781;58.440;15.470;2023-07-29T13:31:23;2.70;;;2.10;;
13419;SDS011;6781;58.440;15.470;2023-07-29T13:33:50;2.75;;;2.55;;
13419;SDS011;6781;58.440;15.470;2023-07-29T13:36:17;1.90;;;1.70;;
13419;SDS011;6781;58.440;15.470;2023-07-29T13:38:44;2.45;;;1.90;;
13419;SDS011;6781;58.440;15.470;2023-07-29T13:41:11;2.75;;;2.55;;
13419;SDS011;6781;58.440;15.470;2023-07-29T13:43:39;3.53;;;2.53;;
13419;SDS011;6781;58.440;15.470;2023-07-29T13:46:07;2.80;;;2.47;;
13419;SDS011;6781;58.440;15.470;2023-07-29T13:48:34;2.15;;;1.95;;
13419;SDS011;6781;58.440;15.470;2023-07-29T13:51:01;2.15;;;2.05;;
13419;SDS011;6781;58.440;15.470;2023-07-29T13:53:28;2.53;;;2.28;;
13419;SDS011;6781;58.440;15.470;2023-07-29T13:55:55;2.42;;;2.22;;
13419;SDS011;6781;58.440;15.470;2023-07-29T13:58:22;2.22;;;2.03;;
13419;SDS011;6781;58.440;15.470;2023-07-29T14:00:50;2.40;;;2.20;;
13419;SDS011;6781;58.440;15.470;2023-07-29T14:03:17;2.63;;;2.15;;
13419;SDS011;6781;58.440;15.470;2023-07-29T14:05:44;3.35;;;2.13;;
13419;SDS011;6781;58.440;15.470;2023-07-29T14:08:11;2.88;;;2.30;;
13419;SDS011;6781;58.440;15.470;2023-07-29T14:10:38;2.47;;;2.05;;
13419;SDS011;6781;58.440;15.470;2023-07-29T14:13:05;2.35;;;2.17;;
13419;SDS011;6781;58.440;15.470;2023-07-29T14:15:32;2.83;;;2.20;;
13419;SDS011;6781;58.440;15.470;2023-07-29T14:18:01;2.42;;;2.22;;
13419;SDS011;6781;58.440;15.470;2023-07-29T14:20:28;2.38;;;2.28;;
13419;SDS011;6781;58.440;15.470;2023-07-29T14:22:56;2.35;;;2.25;;
13419;SDS011;6781;58.440;15.470;2023-07-29T14:25:23;2.97;;;2.45;;
13419;SDS011;6781;58.440;15.470;2023-07-29T14:27:50;3.25;;;2.28;;
13419;SDS011;6781;58.440;15.470;2023-07-29T14:30:17;2.97;;;2.72;;
13419;SDS011;6781;58.440;15.470;2023-07-29T14:32:44;2.45;;;2.25;;
13419;SDS011;6781;58.440;15.470;2023-07-29T14:35:12;2.33;;;2.13;;
13419;SDS011;6781;58.440;15.470;2023-07-29T14:37:39;2.45;;;2.25;;
13419;SDS011;6781;58.440;15.470;2023-07-29T14:40:07;2.45;;;2.25;;
13419;SDS011;6781;58.440;15.470;2023-07-29T14:42:34;2.50;;;2.22;;
13419;SDS011;6781;58.440;15.470;2023-07-29T14:45:01;3.10;;;1.80;;
13419;SDS011;6781;58.440;15.470;2023-07-29T14:47:28;3.33;;;1.90;;
13419;SDS011;6781;58.440;15.470;2023-07-29T14:49:59;2.65;;;2.20;;
13419;SDS011;6781;58.440;15.470;2023-07-29T14:52:28;4.20;;;2.30;;
13419;SDS011;6781;58.440;15.470;2023-07-29T14:54:55;2.33;;;2.20;;
13419;SDS011;6781;58.440;15.470;2023-07-29T14:57:22;2.15;;;1.80;;
13419;SDS011;6781;58.440;15.470;2023-07-29T14:59:49;2.70;;;2.50;;
13419;SDS011;6781;58.440;15.470;2023-07-29T15:02:16;2.25;;;2.05;;